International Skating Union - Official Site

ISU Junior World Cup Berlin
November 28-29, 2015

Draw | Lap Times | Index | World Cup

Referee: Ekaterina  PILSHCHIKOVA  (RUS)
Starter: Bartosz  DAWIDOWSKI  (POL)
StartTime: EndTime: Air Temp: Ice Temp: Humidity:
15:08 15:16 13,8℃ -55℃ 30,8%
Result Mass Start Ladies
Rankings as of Nov 29 2015 4:05PM
Rank: No.: Name: Nation: Time: Behind: Points:
1 131 Ayano  Sato JPN JPN 6:25.55 100
2 136 Ji-Woo  Park KOR KOR 6:25.65 0.10 80
3 139 Esther  Kiel NED NED 6:25.70 0.15 70
4 117 Lydia  Reinländer GER GER 6:31.11 5.56 60
5 121 Noemi  Bonazza ITA ITA 6:42.14 16.59 50
6 119 Tabea  Theurich GER GER 6:27.32 1.77 44
7 135 Min-Sun  Kim KOR KOR 6:25.76 0.21 40
8 107 Mei  Han CHN CHN 6:26.30 0.75 36
9 130 Yuna  Onodera JPN JPN 6:26.41 0.86 32
10 100 Viola  Feichtner AUT AUT 6:26.53 0.98 28
11 127 Kanako  Iijima JPN JPN 6:26.62 1.07 24
12 124 Gloria  Malfatti ITA ITA 6:26.98 1.43 20
13 161 Vera  Güntert SUI SUI 6:27.06 1.51 18
14 157 Yelena  Samkova RUS RUS 6:27.10 1.55 16
15 101 Viktoria  Schinnerl AUT AUT 6:27.30 1.75 14
16 147 Andżelika  Wójcik POL POL 6:27.43 1.88 12
17 143 Inga Anne  Vasaasen NOR NOR 6:27.66 2.11 10
18 102 Anna  Kovaleva BLR BLR 6:28.14 2.59 8
19 156 Vladlena  Rogatkina RUS RUS 6:29.10 3.55 6
20 144 Karolina  Bosiek POL POL 6:29.96 4.41 5
21 106 Yeugeniya  Vorobyova BLR BLR 6:30.19 4.64 4
22 113 Anni  Käsnänen FIN FIN 6:30.25 4.70 3
23 162 Ramona  Härdi SUI SUI 6:30.52 4.97 2
24 134 Nadezhda  Sidelnik KAZ KAZ 6:30.62 5.07 1
25 108 Huawei  Li CHN CHN 6:31.52 5.97 0
26 140 Marit  Steunenberg NED NED 6:36.36 10.81 0